sensor_id;sensor_type;location;lat;lon;timestamp;temperature;humidity
42227;DHT22;27892;52.378;13.122;2023-04-24T00:00:42;15.20;64.00
42227;DHT22;27892;52.378;13.122;2023-04-24T00:03:10;15.20;63.80
42227;DHT22;27892;52.378;13.122;2023-04-24T00:05:36;15.20;63.90
42227;DHT22;27892;52.378;13.122;2023-04-24T00:08:02;15.10;64.00
42227;DHT22;27892;52.378;13.122;2023-04-24T00:10:27;15.10;64.40
42227;DHT22;27892;52.378;13.122;2023-04-24T00:12:53;15.10;64.60
42227;DHT22;27892;52.378;13.122;2023-04-24T00:15:19;15.10;64.90
42227;DHT22;27892;52.378;13.122;2023-04-24T00:17:44;15.10;65.10
42227;DHT22;27892;52.378;13.122;2023-04-24T00:20:11;15.10;65.10
42227;DHT22;27892;52.378;13.122;2023-04-24T00:22:37;15.20;65.30
42227;DHT22;27892;52.378;13.122;2023-04-24T00:25:03;15.20;65.10
42227;DHT22;27892;52.378;13.122;2023-04-24T00:27:29;15.20;65.20
42227;DHT22;27892;52.378;13.122;2023-04-24T00:29:54;15.10;65.10
42227;DHT22;27892;52.378;13.122;2023-04-24T00:32:20;15.10;65.40
42227;DHT22;27892;52.378;13.122;2023-04-24T00:34:46;15.10;65.90
42227;DHT22;27892;52.378;13.122;2023-04-24T00:37:11;15.20;65.90
42227;DHT22;27892;52.378;13.122;2023-04-24T00:39:37;15.00;66.10
42227;DHT22;27892;52.378;13.122;2023-04-24T00:42:03;15.10;66.30
42227;DHT22;27892;52.378;13.122;2023-04-24T00:44:31;15.20;66.00
42227;DHT22;27892;52.378;13.122;2023-04-24T00:46:58;15.30;65.70
42227;DHT22;27892;52.378;13.122;2023-04-24T00:49:24;15.30;65.70
42227;DHT22;27892;52.378;13.122;2023-04-24T00:51:50;15.30;66.00
42227;DHT22;27892;52.378;13.122;2023-04-24T00:54:17;15.40;65.80
42227;DHT22;27892;52.378;13.122;2023-04-24T00:56:44;15.40;65.70
42227;DHT22;27892;52.378;13.122;2023-04-24T00:59:10;15.40;65.70
42227;DHT22;27892;52.378;13.122;2023-04-24T01:01:36;15.40;65.50
42227;DHT22;27892;52.378;13.122;2023-04-24T01:04:02;15.50;65.50
42227;DHT22;27892;52.378;13.122;2023-04-24T01:06:29;15.50;65.40
42227;DHT22;27892;52.378;13.122;2023-04-24T01:08:57;15.40;65.50
42227;DHT22;27892;52.378;13.122;2023-04-24T01:11:25;15.40;66.00
42227;DHT22;27892;52.378;13.122;2023-04-24T01:13:51;15.30;66.40
42227;DHT22;27892;52.378;13.122;2023-04-24T01:16:17;15.30;66.60
42227;DHT22;27892;52.378;13.122;2023-04-24T01:18:45;15.30;66.80
42227;DHT22;27892;52.378;13.122;2023-04-24T01:21:14;15.30;66.70
42227;DHT22;27892;52.378;13.122;2023-04-24T01:23:40;15.20;66.90
42227;DHT22;27892;52.378;13.122;2023-04-24T01:26:06;15.20;67.10
42227;DHT22;27892;52.378;13.122;2023-04-24T01:28:32;15.20;67.20
42227;DHT22;27892;52.378;13.122;2023-04-24T01:30:58;15.30;67.20
42227;DHT22;27892;52.378;13.122;2023-04-24T01:33:24;15.30;67.00
42227;DHT22;27892;52.378;13.122;2023-04-24T01:35:51;15.30;66.90
42227;DHT22;27892;52.378;13.122;2023-04-24T01:38:16;15.30;67.10
42227;DHT22;27892;52.378;13.122;2023-04-24T01:40:42;15.30;67.00
42227;DHT22;27892;52.378;13.122;2023-04-24T01:43:08;15.20;68.20
42227;DHT22;27892;52.378;13.122;2023-04-24T01:45:34;15.20;67.60
42227;DHT22;27892;52.378;13.122;2023-04-24T01:48:00;15.20;67.60
42227;DHT22;27892;52.378;13.122;2023-04-24T01:50:26;15.20;67.50
42227;DHT22;27892;52.378;13.122;2023-04-24T01:52:51;15.20;67.40
42227;DHT22;27892;52.378;13.122;2023-04-24T01:55:17;15.20;67.30
42227;DHT22;27892;52.378;13.122;2023-04-24T01:57:43;15.10;67.60
42227;DHT22;27892;52.378;13.122;2023-04-24T02:00:09;15.10;67.50
42227;DHT22;27892;52.378;13.122;2023-04-24T02:02:37;15.10;67.50
42227;DHT22;27892;52.378;13.122;2023-04-24T02:05:06;15.00;67.60
42227;DHT22;27892;52.378;13.122;2023-04-24T02:07:32;15.00;67.80
42227;DHT22;27892;52.378;13.122;2023-04-24T02:09:58;14.90;67.70
42227;DHT22;27892;52.378;13.122;2023-04-24T02:12:23;14.90;68.00
42227;DHT22;27892;52.378;13.122;2023-04-24T02:14:49;14.80;68.10
42227;DHT22;27892;52.378;13.122;2023-04-24T02:17:15;14.70;68.60
42227;DHT22;27892;52.378;13.122;2023-04-24T02:19:41;14.70;68.90
42227;DHT22;27892;52.378;13.122;2023-04-24T02:22:07;14.70;68.80
42227;DHT22;27892;52.378;13.122;2023-04-24T02:24:33;14.80;68.80
42227;DHT22;27892;52.378;13.122;2023-04-24T02:26:59;14.80;68.90
42227;DHT22;27892;52.378;13.122;2023-04-24T02:29:25;14.80;68.80
42227;DHT22;27892;52.378;13.122;2023-04-24T02:31:51;14.80;68.70
42227;DHT22;27892;52.378;13.122;2023-04-24T02:34:17;14.80;68.70
42227;DHT22;27892;52.378;13.122;2023-04-24T02:36:42;14.80;69.30
42227;DHT22;27892;52.378;13.122;2023-04-24T02:39:08;14.80;69.20
42227;DHT22;27892;52.378;13.122;2023-04-24T02:41:34;14.70;69.50
42227;DHT22;27892;52.378;13.122;2023-04-24T02:44:00;14.70;70.00
42227;DHT22;27892;52.378;13.122;2023-04-24T02:46:25;14.70;70.30
42227;DHT22;27892;52.378;13.122;2023-04-24T02:48:51;14.70;70.50
42227;DHT22;27892;52.378;13.122;2023-04-24T02:51:17;14.70;70.80
42227;DHT22;27892;52.378;13.122;2023-04-24T02:53:43;14.80;71.10
42227;DHT22;27892;52.378;13.122;2023-04-24T02:56:08;14.90;70.80
42227;DHT22;27892;52.378;13.122;2023-04-24T02:58:34;15.00;70.60
42227;DHT22;27892;52.378;13.122;2023-04-24T03:01:00;15.10;70.20
42227;DHT22;27892;52.378;13.122;2023-04-24T03:03:26;15.20;70.80
42227;DHT22;27892;52.378;13.122;2023-04-24T03:05:52;15.10;70.00
42227;DHT22;27892;52.378;13.122;2023-04-24T03:08:18;15.20;70.20
42227;DHT22;27892;52.378;13.122;2023-04-24T03:10:43;15.20;70.20
42227;DHT22;27892;52.378;13.122;2023-04-24T03:13:09;15.20;70.10
42227;DHT22;27892;52.378;13.122;2023-04-24T03:15:35;15.30;70.10
42227;DHT22;27892;52.378;13.122;2023-04-24T03:18:00;15.30;70.00
42227;DHT22;27892;52.378;13.122;2023-04-24T03:20:26;15.40;69.70
42227;DHT22;27892;52.378;13.122;2023-04-24T03:22:52;15.40;69.90
42227;DHT22;27892;52.378;13.122;2023-04-24T03:25:18;15.40;69.80
42227;DHT22;27892;52.378;13.122;2023-04-24T03:27:43;15.40;70.00
42227;DHT22;27892;52.378;13.122;2023-04-24T03:30:09;15.40;70.10
42227;DHT22;27892;52.378;13.122;2023-04-24T03:32:35;15.40;69.80
42227;DHT22;27892;52.378;13.122;2023-04-24T03:35:01;15.40;69.50
42227;DHT22;27892;52.378;13.122;2023-04-24T03:37:27;15.40;69.70
42227;DHT22;27892;52.378;13.122;2023-04-24T03:39:52;15.40;70.00
42227;DHT22;27892;52.378;13.122;2023-04-24T03:42:18;15.40;70.20
42227;DHT22;27892;52.378;13.122;2023-04-24T03:44:44;15.30;70.30
42227;DHT22;27892;52.378;13.122;2023-04-24T03:47:09;15.30;70.40
42227;DHT22;27892;52.378;13.122;2023-04-24T03:49:35;15.20;70.70
42227;DHT22;27892;52.378;13.122;2023-04-24T03:52:01;15.20;70.90
42227;DHT22;27892;52.378;13.122;2023-04-24T03:54:27;15.30;71.60
42227;DHT22;27892;52.378;13.122;2023-04-24T03:56:53;15.30;70.80
42227;DHT22;27892;52.378;13.122;2023-04-24T03:59:19;15.30;70.40
42227;DHT22;27892;52.378;13.122;2023-04-24T04:01:44;15.20;70.90
42227;DHT22;27892;52.378;13.122;2023-04-24T04:04:11;15.20;70.80
42227;DHT22;27892;52.378;13.122;2023-04-24T04:06:36;15.20;70.50
42227;DHT22;27892;52.378;13.122;2023-04-24T04:09:02;15.10;70.20
42227;DHT22;27892;52.378;13.122;2023-04-24T04:11:29;15.10;70.50
42227;DHT22;27892;52.378;13.122;2023-04-24T04:13:55;15.10;70.50
42227;DHT22;27892;52.378;13.122;2023-04-24T04:16:22;15.00;70.20
42227;DHT22;27892;52.378;13.122;2023-04-24T04:18:48;14.90;70.10
42227;DHT22;27892;52.378;13.122;2023-04-24T04:21:14;14.90;70.20
42227;DHT22;27892;52.378;13.122;2023-04-24T04:23:40;14.80;71.10
42227;DHT22;27892;52.378;13.122;2023-04-24T04:26:05;14.80;70.10
42227;DHT22;27892;52.378;13.122;2023-04-24T04:28:32;14.80;70.30
42227;DHT22;27892;52.378;13.122;2023-04-24T04:30:57;14.80;70.30
42227;DHT22;27892;52.378;13.122;2023-04-24T04:33:24;14.80;70.60
42227;DHT22;27892;52.378;13.122;2023-04-24T04:35:50;14.80;71.10
42227;DHT22;27892;52.378;13.122;2023-04-24T04:38:18;14.90;71.30
42227;DHT22;27892;52.378;13.122;2023-04-24T04:40:44;15.00;71.00
42227;DHT22;27892;52.378;13.122;2023-04-24T04:43:10;14.90;71.10
42227;DHT22;27892;52.378;13.122;2023-04-24T04:45:37;15.10;71.60
42227;DHT22;27892;52.378;13.122;2023-04-24T04:48:04;15.10;71.10
42227;DHT22;27892;52.378;13.122;2023-04-24T04:50:30;15.10;71.30
42227;DHT22;27892;52.378;13.122;2023-04-24T04:52:56;15.20;71.80
42227;DHT22;27892;52.378;13.122;2023-04-24T04:55:22;15.40;71.70
42227;DHT22;27892;52.378;13.122;2023-04-24T04:57:47;15.50;71.30
42227;DHT22;27892;52.378;13.122;2023-04-24T05:00:13;15.50;71.10
42227;DHT22;27892;52.378;13.122;2023-04-24T05:02:39;15.60;70.90
42227;DHT22;27892;52.378;13.122;2023-04-24T05:05:06;15.70;70.60
42227;DHT22;27892;52.378;13.122;2023-04-24T05:07:33;15.80;70.50
42227;DHT22;27892;52.378;13.122;2023-04-24T05:09:59;15.80;70.10
42227;DHT22;27892;52.378;13.122;2023-04-24T05:12:24;15.90;69.90
42227;DHT22;27892;52.378;13.122;2023-04-24T05:14:50;16.00;69.60
42227;DHT22;27892;52.378;13.122;2023-04-24T05:17:16;16.10;69.00
42227;DHT22;27892;52.378;13.122;2023-04-24T05:19:41;16.10;68.80
42227;DHT22;27892;52.378;13.122;2023-04-24T05:22:07;16.20;68.70
42227;DHT22;27892;52.378;13.122;2023-04-24T05:24:35;16.40;68.10
42227;DHT22;27892;52.378;13.122;2023-04-24T05:27:04;16.50;67.90
42227;DHT22;27892;52.378;13.122;2023-04-24T05:29:31;16.70;68.20
42227;DHT22;27892;52.378;13.122;2023-04-24T05:31:57;16.80;67.20
42227;DHT22;27892;52.378;13.122;2023-04-24T05:34:23;16.90;66.10
42227;DHT22;27892;52.378;13.122;2023-04-24T05:36:49;17.10;66.00
42227;DHT22;27892;52.378;13.122;2023-04-24T05:39:16;17.20;65.40
42227;DHT22;27892;52.378;13.122;2023-04-24T05:41:42;17.20;64.30
42227;DHT22;27892;52.378;13.122;2023-04-24T05:44:07;17.40;64.80
42227;DHT22;27892;52.378;13.122;2023-04-24T05:46:33;18.20;64.10
42227;DHT22;27892;52.378;13.122;2023-04-24T05:48:59;19.50;61.90
42227;DHT22;27892;52.378;13.122;2023-04-24T05:51:24;20.70;58.60
42227;DHT22;27892;52.378;13.122;2023-04-24T05:53:51;21.20;55.90
42227;DHT22;27892;52.378;13.122;2023-04-24T05:56:23;21.40;54.80
42227;DHT22;27892;52.378;13.122;2023-04-24T05:58:49;21.40;54.40
42227;DHT22;27892;52.378;13.122;2023-04-24T06:01:15;21.50;53.70
42227;DHT22;27892;52.378;13.122;2023-04-24T06:03:41;21.50;53.30
42227;DHT22;27892;52.378;13.122;2023-04-24T06:06:07;21.70;53.90
42227;DHT22;27892;52.378;13.122;2023-04-24T06:08:34;22.50;53.20
42227;DHT22;27892;52.378;13.122;2023-04-24T06:11:00;24.20;50.20
42227;DHT22;27892;52.378;13.122;2023-04-24T06:13:26;26.00;49.00
42227;DHT22;27892;52.378;13.122;2023-04-24T06:15:52;27.50;44.40
42227;DHT22;27892;52.378;13.122;2023-04-24T06:18:18;29.00;42.00
42227;DHT22;27892;52.378;13.122;2023-04-24T06:20:45;29.80;40.10
42227;DHT22;27892;52.378;13.122;2023-04-24T06:23:11;31.30;37.50
42227;DHT22;27892;52.378;13.122;2023-04-24T06:25:36;32.30;33.70
42227;DHT22;27892;52.378;13.122;2023-04-24T06:28:03;33.40;32.40
42227;DHT22;27892;52.378;13.122;2023-04-24T06:30:28;33.70;30.60
42227;DHT22;27892;52.378;13.122;2023-04-24T06:32:54;33.40;29.40
42227;DHT22;27892;52.378;13.122;2023-04-24T06:35:20;32.40;30.00
42227;DHT22;27892;52.378;13.122;2023-04-24T06:37:46;30.30;30.50
42227;DHT22;27892;52.378;13.122;2023-04-24T06:40:11;29.00;34.20
42227;DHT22;27892;52.378;13.122;2023-04-24T06:42:37;29.60;33.50
42227;DHT22;27892;52.378;13.122;2023-04-24T06:45:03;28.90;32.40
42227;DHT22;27892;52.378;13.122;2023-04-24T06:47:30;27.50;33.30
42227;DHT22;27892;52.378;13.122;2023-04-24T06:49:56;26.10;35.80
42227;DHT22;27892;52.378;13.122;2023-04-24T06:52:24;25.40;38.10
42227;DHT22;27892;52.378;13.122;2023-04-24T06:54:50;25.50;37.90
42227;DHT22;27892;52.378;13.122;2023-04-24T06:57:16;25.10;38.30
42227;DHT22;27892;52.378;13.122;2023-04-24T06:59:42;24.80;38.50
42227;DHT22;27892;52.378;13.122;2023-04-24T07:02:07;24.30;39.60
42227;DHT22;27892;52.378;13.122;2023-04-24T07:04:33;24.20;40.00
42227;DHT22;27892;52.378;13.122;2023-04-24T07:06:59;25.40;41.10
42227;DHT22;27892;52.378;13.122;2023-04-24T07:09:25;27.40;37.80
42227;DHT22;27892;52.378;13.122;2023-04-24T07:11:51;28.50;35.50
42227;DHT22;27892;52.378;13.122;2023-04-24T07:14:18;29.40;33.40
42227;DHT22;27892;52.378;13.122;2023-04-24T07:16:44;30.90;33.70
42227;DHT22;27892;52.378;13.122;2023-04-24T07:19:11;32.40;30.00
42227;DHT22;27892;52.378;13.122;2023-04-24T07:21:36;33.60;29.00
42227;DHT22;27892;52.378;13.122;2023-04-24T07:24:02;34.50;27.40
42227;DHT22;27892;52.378;13.122;2023-04-24T07:26:31;35.20;27.20
42227;DHT22;27892;52.378;13.122;2023-04-24T07:28:57;36.00;26.30
42227;DHT22;27892;52.378;13.122;2023-04-24T07:31:22;36.60;25.70
42227;DHT22;27892;52.378;13.122;2023-04-24T07:33:48;37.60;25.20
42227;DHT22;27892;52.378;13.122;2023-04-24T07:36:14;38.60;24.80
42227;DHT22;27892;52.378;13.122;2023-04-24T07:38:47;38.10;22.90
42227;DHT22;27892;52.378;13.122;2023-04-24T07:41:13;37.50;24.00
42227;DHT22;27892;52.378;13.122;2023-04-24T07:43:39;36.20;24.40
42227;DHT22;27892;52.378;13.122;2023-04-24T07:46:06;35.40;25.10
42227;DHT22;27892;52.378;13.122;2023-04-24T07:48:31;34.10;25.20
42227;DHT22;27892;52.378;13.122;2023-04-24T07:50:57;33.00;25.90
42227;DHT22;27892;52.378;13.122;2023-04-24T07:53:23;32.70;26.50
42227;DHT22;27892;52.378;13.122;2023-04-24T07:55:49;32.40;26.30
42227;DHT22;27892;52.378;13.122;2023-04-24T07:58:17;31.30;26.80
42227;DHT22;27892;52.378;13.122;2023-04-24T08:00:43;30.40;28.90
42227;DHT22;27892;52.378;13.122;2023-04-24T08:03:09;31.20;28.60
42227;DHT22;27892;52.378;13.122;2023-04-24T08:05:34;31.40;27.00
42227;DHT22;27892;52.378;13.122;2023-04-24T08:08:00;30.10;27.60
42227;DHT22;27892;52.378;13.122;2023-04-24T08:10:26;28.80;29.40
42227;DHT22;27892;52.378;13.122;2023-04-24T08:12:51;28.50;31.00
42227;DHT22;27892;52.378;13.122;2023-04-24T08:15:17;28.00;30.00
42227;DHT22;27892;52.378;13.122;2023-04-24T08:17:43;26.80;31.70
42227;DHT22;27892;52.378;13.122;2023-04-24T08:20:12;25.80;34.20
42227;DHT22;27892;52.378;13.122;2023-04-24T08:22:41;25.10;35.40
42227;DHT22;27892;52.378;13.122;2023-04-24T08:25:07;24.70;36.70
42227;DHT22;27892;52.378;13.122;2023-04-24T08:27:33;24.20;37.50
42227;DHT22;27892;52.378;13.122;2023-04-24T08:29:59;23.70;38.90
42227;DHT22;27892;52.378;13.122;2023-04-24T08:32:26;23.40;39.80
42227;DHT22;27892;52.378;13.122;2023-04-24T08:34:55;23.30;40.20
42227;DHT22;27892;52.378;13.122;2023-04-24T08:37:22;23.20;40.20
42227;DHT22;27892;52.378;13.122;2023-04-24T08:39:48;23.10;40.20
42227;DHT22;27892;52.378;13.122;2023-04-24T08:42:14;23.00;40.40
42227;DHT22;27892;52.378;13.122;2023-04-24T08:44:41;22.90;40.10
42227;DHT22;27892;52.378;13.122;2023-04-24T08:47:07;22.60;40.40
42227;DHT22;27892;52.378;13.122;2023-04-24T08:49:33;22.40;40.70
42227;DHT22;27892;52.378;13.122;2023-04-24T08:52:02;22.30;41.40
42227;DHT22;27892;52.378;13.122;2023-04-24T08:54:28;22.30;41.50
42227;DHT22;27892;52.378;13.122;2023-04-24T08:56:59;22.20;41.70
42227;DHT22;27892;52.378;13.122;2023-04-24T08:59:30;22.20;42.70
42227;DHT22;27892;52.378;13.122;2023-04-24T09:01:56;22.30;42.10
42227;DHT22;27892;52.378;13.122;2023-04-24T09:04:23;22.20;42.00
42227;DHT22;27892;52.378;13.122;2023-04-24T09:06:51;22.20;42.30
42227;DHT22;27892;52.378;13.122;2023-04-24T09:09:17;22.20;42.40
42227;DHT22;27892;52.378;13.122;2023-04-24T09:11:46;22.40;42.00
42227;DHT22;27892;52.378;13.122;2023-04-24T09:14:12;22.30;42.20
42227;DHT22;27892;52.378;13.122;2023-04-24T09:16:39;22.40;42.20
42227;DHT22;27892;52.378;13.122;2023-04-24T09:19:05;22.30;42.10
42227;DHT22;27892;52.378;13.122;2023-04-24T09:21:34;22.30;42.40
42227;DHT22;27892;52.378;13.122;2023-04-24T09:24:03;22.30;42.80
42227;DHT22;27892;52.378;13.122;2023-04-24T09:26:30;22.20;42.90
42227;DHT22;27892;52.378;13.122;2023-04-24T09:28:59;22.00;43.20
42227;DHT22;27892;52.378;13.122;2023-04-24T09:31:27;22.00;43.30
42227;DHT22;27892;52.378;13.122;2023-04-24T09:33:59;22.10;44.30
42227;DHT22;27892;52.378;13.122;2023-04-24T09:36:32;23.10;44.10
42227;DHT22;27892;52.378;13.122;2023-04-24T09:39:06;24.30;40.90
42227;DHT22;27892;52.378;13.122;2023-04-24T09:46:45;24.30;37.40
42227;DHT22;27892;52.378;13.122;2023-04-24T09:49:15;23.90;38.30
42227;DHT22;27892;52.378;13.122;2023-04-24T09:51:42;23.20;38.70
42227;DHT22;27892;52.378;13.122;2023-04-24T09:54:19;23.00;40.30
42227;DHT22;27892;52.378;13.122;2023-04-24T09:56:48;23.40;40.30
42227;DHT22;27892;52.378;13.122;2023-04-24T09:59:15;23.70;40.10
42227;DHT22;27892;52.378;13.122;2023-04-24T10:01:41;24.00;40.60
42227;DHT22;27892;52.378;13.122;2023-04-24T10:04:17;24.20;39.40
42227;DHT22;27892;52.378;13.122;2023-04-24T10:06:44;24.00;38.90
42227;DHT22;27892;52.378;13.122;2023-04-24T10:09:10;23.50;38.80
42227;DHT22;27892;52.378;13.122;2023-04-24T10:11:37;23.00;39.20
42227;DHT22;27892;52.378;13.122;2023-04-24T10:14:06;22.40;39.90
42227;DHT22;27892;52.378;13.122;2023-04-24T10:16:34;22.00;41.10
42227;DHT22;27892;52.378;13.122;2023-04-24T10:19:02;21.70;41.50
42227;DHT22;27892;52.378;13.122;2023-04-24T10:21:28;21.30;42.20
42227;DHT22;27892;52.378;13.122;2023-04-24T10:23:54;21.10;43.00
42227;DHT22;27892;52.378;13.122;2023-04-24T10:26:21;21.10;43.50
42227;DHT22;27892;52.378;13.122;2023-04-24T10:28:47;21.00;43.80
42227;DHT22;27892;52.378;13.122;2023-04-24T10:31:14;21.00;44.20
42227;DHT22;27892;52.378;13.122;2023-04-24T10:33:43;21.10;43.80
42227;DHT22;27892;52.378;13.122;2023-04-24T10:36:12;21.60;44.70
42227;DHT22;27892;52.378;13.122;2023-04-24T10:38:41;21.90;44.00
42227;DHT22;27892;52.378;13.122;2023-04-24T10:41:11;22.40;43.70
42227;DHT22;27892;52.378;13.122;2023-04-24T10:43:42;22.50;41.70
42227;DHT22;27892;52.378;13.122;2023-04-24T10:46:08;22.50;42.10
42227;DHT22;27892;52.378;13.122;2023-04-24T10:48:36;22.30;42.80
42227;DHT22;27892;52.378;13.122;2023-04-24T10:51:11;22.20;43.50
42227;DHT22;27892;52.378;13.122;2023-04-24T10:53:38;22.20;43.90
42227;DHT22;27892;52.378;13.122;2023-04-24T10:56:06;22.00;43.20
42227;DHT22;27892;52.378;13.122;2023-04-24T10:58:52;21.80;43.40
42227;DHT22;27892;52.378;13.122;2023-04-24T11:03:58;21.40;45.70
42227;DHT22;27892;52.378;13.122;2023-04-24T11:06:34;21.20;46.70
42227;DHT22;27892;52.378;13.122;2023-04-24T11:09:05;21.20;46.70
42227;DHT22;27892;52.378;13.122;2023-04-24T11:11:33;21.30;46.50
42227;DHT22;27892;52.378;13.122;2023-04-24T11:16:45;21.30;46.50
42227;DHT22;27892;52.378;13.122;2023-04-24T11:27:11;22.50;45.50
42227;DHT22;27892;52.378;13.122;2023-04-24T11:29:41;22.70;45.50
42227;DHT22;27892;52.378;13.122;2023-04-24T11:32:29;23.00;45.00
42227;DHT22;27892;52.378;13.122;2023-04-24T11:37:28;23.80;42.00
42227;DHT22;27892;52.378;13.122;2023-04-24T11:39:55;24.00;41.10
42227;DHT22;27892;52.378;13.122;2023-04-24T11:42:24;23.70;39.90
42227;DHT22;27892;52.378;13.122;2023-04-24T11:44:54;23.70;38.90
42227;DHT22;27892;52.378;13.122;2023-04-24T11:47:30;23.80;38.40
42227;DHT22;27892;52.378;13.122;2023-04-24T11:49:57;24.30;38.10
42227;DHT22;27892;52.378;13.122;2023-04-24T11:52:23;24.70;36.90
42227;DHT22;27892;52.378;13.122;2023-04-24T11:54:49;24.70;33.90
42227;DHT22;27892;52.378;13.122;2023-04-24T11:57:16;24.50;33.60
42227;DHT22;27892;52.378;13.122;2023-04-24T11:59:42;24.40;33.90
42227;DHT22;27892;52.378;13.122;2023-04-24T12:02:08;24.90;33.90
42227;DHT22;27892;52.378;13.122;2023-04-24T12:04:40;25.20;33.60
42227;DHT22;27892;52.378;13.122;2023-04-24T12:07:06;25.50;33.10
42227;DHT22;27892;52.378;13.122;2023-04-24T12:10:04;25.80;30.00
42227;DHT22;27892;52.378;13.122;2023-04-24T12:12:30;26.00;29.90
42227;DHT22;27892;52.378;13.122;2023-04-24T12:14:57;26.60;30.20
42227;DHT22;27892;52.378;13.122;2023-04-24T12:17:31;27.20;27.90
42227;DHT22;27892;52.378;13.122;2023-04-24T12:19:58;27.00;26.70
42227;DHT22;27892;52.378;13.122;2023-04-24T12:22:25;25.90;27.60
42227;DHT22;27892;52.378;13.122;2023-04-24T12:25:01;25.20;29.00
42227;DHT22;27892;52.378;13.122;2023-04-24T12:27:31;24.70;29.40
42227;DHT22;27892;52.378;13.122;2023-04-24T12:29:59;24.80;30.00
42227;DHT22;27892;52.378;13.122;2023-04-24T12:32:25;25.00;30.40
42227;DHT22;27892;52.378;13.122;2023-04-24T12:34:52;24.80;29.30
42227;DHT22;27892;52.378;13.122;2023-04-24T12:37:18;24.40;29.40
42227;DHT22;27892;52.378;13.122;2023-04-24T12:40:09;23.70;29.50
42227;DHT22;27892;52.378;13.122;2023-04-24T12:42:41;23.30;30.80
42227;DHT22;27892;52.378;13.122;2023-04-24T12:45:07;23.20;31.80
42227;DHT22;27892;52.378;13.122;2023-04-24T12:47:34;23.90;32.70
42227;DHT22;27892;52.378;13.122;2023-04-24T12:50:00;24.50;31.00
42227;DHT22;27892;52.378;13.122;2023-04-24T12:52:27;24.70;28.50
42227;DHT22;27892;52.378;13.122;2023-04-24T12:54:55;24.90;29.30
42227;DHT22;27892;52.378;13.122;2023-04-24T12:57:25;25.10;27.50
42227;DHT22;27892;52.378;13.122;2023-04-24T12:59:54;25.10;27.40
42227;DHT22;27892;52.378;13.122;2023-04-24T13:02:20;25.10;27.90
42227;DHT22;27892;52.378;13.122;2023-04-24T13:04:47;25.00;27.60
42227;DHT22;27892;52.378;13.122;2023-04-24T13:07:14;24.90;29.30
42227;DHT22;27892;52.378;13.122;2023-04-24T13:09:40;25.10;29.00
42227;DHT22;27892;52.378;13.122;2023-04-24T13:12:07;25.10;28.40
42227;DHT22;27892;52.378;13.122;2023-04-24T13:14:33;24.60;29.00
42227;DHT22;27892;52.378;13.122;2023-04-24T13:16:59;24.60;29.00
42227;DHT22;27892;52.378;13.122;2023-04-24T13:19:25;24.60;28.70
42227;DHT22;27892;52.378;13.122;2023-04-24T13:21:52;24.40;28.30
42227;DHT22;27892;52.378;13.122;2023-04-24T13:24:18;24.70;29.20
42227;DHT22;27892;52.378;13.122;2023-04-24T13:26:43;25.30;28.30
42227;DHT22;27892;52.378;13.122;2023-04-24T13:29:09;25.10;28.10
42227;DHT22;27892;52.378;13.122;2023-04-24T13:31:35;24.70;28.60
42227;DHT22;27892;52.378;13.122;2023-04-24T13:34:02;24.30;28.60
42227;DHT22;27892;52.378;13.122;2023-04-24T13:36:28;23.90;29.10
42227;DHT22;27892;52.378;13.122;2023-04-24T13:38:54;23.60;29.20
42227;DHT22;27892;52.378;13.122;2023-04-24T13:41:19;24.30;30.70
42227;DHT22;27892;52.378;13.122;2023-04-24T13:43:45;25.60;28.20
42227;DHT22;27892;52.378;13.122;2023-04-24T13:46:11;27.10;28.90
42227;DHT22;27892;52.378;13.122;2023-04-24T13:48:36;28.10;25.80
42227;DHT22;27892;52.378;13.122;2023-04-24T13:51:02;28.80;25.10
42227;DHT22;27892;52.378;13.122;2023-04-24T13:53:28;28.20;24.30
42227;DHT22;27892;52.378;13.122;2023-04-24T13:55:54;27.80;25.40
42227;DHT22;27892;52.378;13.122;2023-04-24T13:58:20;27.70;25.60
42227;DHT22;27892;52.378;13.122;2023-04-24T14:00:46;28.00;25.70
42227;DHT22;27892;52.378;13.122;2023-04-24T14:03:11;28.60;26.20
42227;DHT22;27892;52.378;13.122;2023-04-24T14:05:37;28.40;25.40
42227;DHT22;27892;52.378;13.122;2023-04-24T14:08:03;27.30;25.30
42227;DHT22;27892;52.378;13.122;2023-04-24T14:10:28;26.90;26.70
42227;DHT22;27892;52.378;13.122;2023-04-24T14:12:54;27.10;25.50
42227;DHT22;27892;52.378;13.122;2023-04-24T14:15:20;26.90;26.70
42227;DHT22;27892;52.378;13.122;2023-04-24T14:17:46;27.50;26.80
42227;DHT22;27892;52.378;13.122;2023-04-24T14:20:12;28.00;26.00
42227;DHT22;27892;52.378;13.122;2023-04-24T14:22:38;28.00;24.40
42227;DHT22;27892;52.378;13.122;2023-04-24T14:25:04;27.50;24.70
42227;DHT22;27892;52.378;13.122;2023-04-24T14:27:31;26.80;25.90
42227;DHT22;27892;52.378;13.122;2023-04-24T14:29:57;26.70;26.80
42227;DHT22;27892;52.378;13.122;2023-04-24T14:32:23;26.70;26.30
42227;DHT22;27892;52.378;13.122;2023-04-24T14:34:49;26.30;26.10
42227;DHT22;27892;52.378;13.122;2023-04-24T14:37:14;25.90;26.70
42227;DHT22;27892;52.378;13.122;2023-04-24T14:39:40;25.40;27.10
42227;DHT22;27892;52.378;13.122;2023-04-24T14:42:06;24.90;26.90
42227;DHT22;27892;52.378;13.122;2023-04-24T14:45:38;24.30;27.10
42227;DHT22;27892;52.378;13.122;2023-04-24T14:48:05;24.00;28.70
42227;DHT22;27892;52.378;13.122;2023-04-24T14:50:31;23.80;29.50
42227;DHT22;27892;52.378;13.122;2023-04-24T14:52:56;23.40;28.80
42227;DHT22;27892;52.378;13.122;2023-04-24T14:55:27;23.10;28.80
42227;DHT22;27892;52.378;13.122;2023-04-24T14:57:53;22.70;29.00
42227;DHT22;27892;52.378;13.122;2023-04-24T15:00:19;22.50;28.90
42227;DHT22;27892;52.378;13.122;2023-04-24T15:02:45;22.20;29.90
42227;DHT22;27892;52.378;13.122;2023-04-24T15:05:11;22.10;29.70
42227;DHT22;27892;52.378;13.122;2023-04-24T15:07:38;22.00;30.10
42227;DHT22;27892;52.378;13.122;2023-04-24T15:10:04;21.90;30.60
42227;DHT22;27892;52.378;13.122;2023-04-24T15:12:30;21.80;30.90
42227;DHT22;27892;52.378;13.122;2023-04-24T15:14:57;21.70;31.20
42227;DHT22;27892;52.378;13.122;2023-04-24T15:17:23;21.70;31.30
42227;DHT22;27892;52.378;13.122;2023-04-24T15:19:49;21.50;30.70
42227;DHT22;27892;52.378;13.122;2023-04-24T15:22:14;21.30;30.70
42227;DHT22;27892;52.378;13.122;2023-04-24T15:24:40;21.20;31.20
42227;DHT22;27892;52.378;13.122;2023-04-24T15:27:09;21.10;31.40
42227;DHT22;27892;52.378;13.122;2023-04-24T15:29:35;21.00;31.20
42227;DHT22;27892;52.378;13.122;2023-04-24T15:32:01;20.90;31.30
42227;DHT22;27892;52.378;13.122;2023-04-24T15:34:27;21.00;31.50